sensor_id;sensor_type;location;lat;lon;timestamp;temperature;humidity
52867;DHT22;38739;53.324;6.862;2023-03-21T00:00:39;8.90;99.90
52867;DHT22;38739;53.324;6.862;2023-03-21T00:03:05;8.90;99.90
52867;DHT22;38739;53.324;6.862;2023-03-21T00:05:30;8.90;99.90
52867;DHT22;38739;53.324;6.862;2023-03-21T00:07:56;8.90;99.90
52867;DHT22;38739;53.324;6.862;2023-03-21T00:10:22;8.90;99.90
52867;DHT22;38739;53.324;6.862;2023-03-21T00:12:48;8.90;99.90
52867;DHT22;38739;53.324;6.862;2023-03-21T00:15:24;8.90;99.90
52867;DHT22;38739;53.324;6.862;2023-03-21T00:17:56;8.90;99.90
52867;DHT22;38739;53.324;6.862;2023-03-21T00:20:31;8.90;99.90
52867;DHT22;38739;53.324;6.862;2023-03-21T00:23:03;8.90;99.90
52867;DHT22;38739;53.324;6.862;2023-03-21T00:25:31;8.90;99.90
52867;DHT22;38739;53.324;6.862;2023-03-21T00:27:58;8.90;99.90
52867;DHT22;38739;53.324;6.862;2023-03-21T00:30:24;8.90;99.90
52867;DHT22;38739;53.324;6.862;2023-03-21T00:32:49;9.00;99.90
52867;DHT22;38739;53.324;6.862;2023-03-21T00:35:16;8.90;99.90
52867;DHT22;38739;53.324;6.862;2023-03-21T00:37:42;8.90;99.90
52867;DHT22;38739;53.324;6.862;2023-03-21T00:40:08;8.90;99.90
52867;DHT22;38739;53.324;6.862;2023-03-21T00:42:35;8.90;99.90
52867;DHT22;38739;53.324;6.862;2023-03-21T00:45:02;8.90;99.90
52867;DHT22;38739;53.324;6.862;2023-03-21T00:47:28;8.90;99.90
52867;DHT22;38739;53.324;6.862;2023-03-21T00:49:55;9.00;99.90
52867;DHT22;38739;53.324;6.862;2023-03-21T00:52:22;8.90;99.90
52867;DHT22;38739;53.324;6.862;2023-03-21T00:54:47;9.00;99.90
52867;DHT22;38739;53.324;6.862;2023-03-21T00:57:13;8.90;99.90
52867;DHT22;38739;53.324;6.862;2023-03-21T00:59:39;9.00;99.90
52867;DHT22;38739;53.324;6.862;2023-03-21T01:02:07;8.90;99.90
52867;DHT22;38739;53.324;6.862;2023-03-21T01:04:33;8.90;99.90
52867;DHT22;38739;53.324;6.862;2023-03-21T01:06:59;8.90;99.90
52867;DHT22;38739;53.324;6.862;2023-03-21T01:09:25;8.90;99.90
52867;DHT22;38739;53.324;6.862;2023-03-21T01:11:52;9.00;99.90
52867;DHT22;38739;53.324;6.862;2023-03-21T01:14:19;9.00;99.90
52867;DHT22;38739;53.324;6.862;2023-03-21T01:16:45;9.00;99.90
52867;DHT22;38739;53.324;6.862;2023-03-21T01:19:13;9.00;99.90
52867;DHT22;38739;53.324;6.862;2023-03-21T01:21:39;8.90;99.90
52867;DHT22;38739;53.324;6.862;2023-03-21T01:24:06;9.00;99.90
52867;DHT22;38739;53.324;6.862;2023-03-21T01:26:32;8.90;99.90
52867;DHT22;38739;53.324;6.862;2023-03-21T01:28:57;8.90;99.90
52867;DHT22;38739;53.324;6.862;2023-03-21T01:31:23;9.00;99.90
52867;DHT22;38739;53.324;6.862;2023-03-21T01:33:49;9.00;99.90
52867;DHT22;38739;53.324;6.862;2023-03-21T01:36:18;9.00;99.90
52867;DHT22;38739;53.324;6.862;2023-03-21T01:38:47;9.00;99.90
52867;DHT22;38739;53.324;6.862;2023-03-21T01:43:55;9.00;99.90
52867;DHT22;38739;53.324;6.862;2023-03-21T01:46:39;9.00;99.90
52867;DHT22;38739;53.324;6.862;2023-03-21T01:49:22;9.00;99.90
52867;DHT22;38739;53.324;6.862;2023-03-21T01:51:57;9.00;99.90
52867;DHT22;38739;53.324;6.862;2023-03-21T01:54:31;9.00;99.90
52867;DHT22;38739;53.324;6.862;2023-03-21T01:57:05;9.00;99.90
52867;DHT22;38739;53.324;6.862;2023-03-21T01:59:53;9.00;99.90
52867;DHT22;38739;53.324;6.862;2023-03-21T02:02:29;9.00;99.90
52867;DHT22;38739;53.324;6.862;2023-03-21T02:04:56;9.00;99.90
52867;DHT22;38739;53.324;6.862;2023-03-21T02:07:33;9.00;99.90
52867;DHT22;38739;53.324;6.862;2023-03-21T02:10:02;9.00;99.90
52867;DHT22;38739;53.324;6.862;2023-03-21T02:12:29;9.00;99.90
52867;DHT22;38739;53.324;6.862;2023-03-21T02:14:56;9.00;99.90
52867;DHT22;38739;53.324;6.862;2023-03-21T02:33:42;9.00;99.90
52867;DHT22;38739;53.324;6.862;2023-03-21T02:39:25;9.00;99.90
52867;DHT22;38739;53.324;6.862;2023-03-21T02:42:03;9.00;99.90
52867;DHT22;38739;53.324;6.862;2023-03-21T02:44:53;9.00;99.90
52867;DHT22;38739;53.324;6.862;2023-03-21T02:47:43;9.00;99.90
52867;DHT22;38739;53.324;6.862;2023-03-21T02:52:51;9.00;99.90
52867;DHT22;38739;53.324;6.862;2023-03-21T02:55:26;9.00;99.90
52867;DHT22;38739;53.324;6.862;2023-03-21T02:57:54;9.10;99.90
52867;DHT22;38739;53.324;6.862;2023-03-21T03:00:26;9.00;99.90
52867;DHT22;38739;53.324;6.862;2023-03-21T03:02:52;9.00;99.90
52867;DHT22;38739;53.324;6.862;2023-03-21T03:05:28;9.00;99.90
52867;DHT22;38739;53.324;6.862;2023-03-21T03:24:16;9.10;99.90
52867;DHT22;38739;53.324;6.862;2023-03-21T03:26:50;9.10;99.90
52867;DHT22;38739;53.324;6.862;2023-03-21T03:29:20;9.10;99.90
52867;DHT22;38739;53.324;6.862;2023-03-21T03:31:52;9.10;99.90
52867;DHT22;38739;53.324;6.862;2023-03-21T03:34:24;9.10;99.90
52867;DHT22;38739;53.324;6.862;2023-03-21T03:37:01;9.10;99.90
52867;DHT22;38739;53.324;6.862;2023-03-21T03:42:23;9.10;99.90
52867;DHT22;38739;53.324;6.862;2023-03-21T03:44:56;9.10;99.90
52867;DHT22;38739;53.324;6.862;2023-03-21T03:47:27;9.10;99.90
52867;DHT22;38739;53.324;6.862;2023-03-21T03:52:50;9.20;99.90
52867;DHT22;38739;53.324;6.862;2023-03-21T03:55:19;9.10;99.90
52867;DHT22;38739;53.324;6.862;2023-03-21T03:57:47;9.10;99.90
52867;DHT22;38739;53.324;6.862;2023-03-21T04:00:14;9.10;99.90
52867;DHT22;38739;53.324;6.862;2023-03-21T04:02:44;9.10;99.90
52867;DHT22;38739;53.324;6.862;2023-03-21T04:05:10;9.10;99.90
52867;DHT22;38739;53.324;6.862;2023-03-21T04:07:36;9.10;99.90
52867;DHT22;38739;53.324;6.862;2023-03-21T04:10:02;9.10;99.90
52867;DHT22;38739;53.324;6.862;2023-03-21T04:12:29;9.10;99.90
52867;DHT22;38739;53.324;6.862;2023-03-21T04:14:55;9.10;99.90
52867;DHT22;38739;53.324;6.862;2023-03-21T04:17:21;9.10;99.90
52867;DHT22;38739;53.324;6.862;2023-03-21T04:19:47;9.10;99.90
52867;DHT22;38739;53.324;6.862;2023-03-21T04:22:12;9.20;99.90
52867;DHT22;38739;53.324;6.862;2023-03-21T04:24:38;9.20;99.90
52867;DHT22;38739;53.324;6.862;2023-03-21T04:27:05;9.20;99.90
52867;DHT22;38739;53.324;6.862;2023-03-21T04:29:31;9.20;99.90
52867;DHT22;38739;53.324;6.862;2023-03-21T04:31:57;9.20;99.90
52867;DHT22;38739;53.324;6.862;2023-03-21T04:34:24;9.20;99.90
52867;DHT22;38739;53.324;6.862;2023-03-21T04:36:55;9.20;99.90
52867;DHT22;38739;53.324;6.862;2023-03-21T04:39:21;9.20;99.90
52867;DHT22;38739;53.324;6.862;2023-03-21T04:41:49;9.20;99.90
52867;DHT22;38739;53.324;6.862;2023-03-21T04:44:16;9.20;99.90
52867;DHT22;38739;53.324;6.862;2023-03-21T04:46:42;9.20;99.90
52867;DHT22;38739;53.324;6.862;2023-03-21T04:49:08;9.20;99.90
52867;DHT22;38739;53.324;6.862;2023-03-21T04:51:35;9.20;99.90
52867;DHT22;38739;53.324;6.862;2023-03-21T04:54:01;9.20;99.90
52867;DHT22;38739;53.324;6.862;2023-03-21T04:56:27;9.20;99.90
52867;DHT22;38739;53.324;6.862;2023-03-21T04:59:05;9.20;99.90
52867;DHT22;38739;53.324;6.862;2023-03-21T05:01:31;9.20;99.90
52867;DHT22;38739;53.324;6.862;2023-03-21T05:04:01;9.20;99.90
52867;DHT22;38739;53.324;6.862;2023-03-21T05:06:27;9.20;99.90
52867;DHT22;38739;53.324;6.862;2023-03-21T05:08:54;9.20;99.90
52867;DHT22;38739;53.324;6.862;2023-03-21T05:11:31;9.20;99.90
52867;DHT22;38739;53.324;6.862;2023-03-21T05:13:57;9.20;99.90
52867;DHT22;38739;53.324;6.862;2023-03-21T05:16:23;9.20;99.90
52867;DHT22;38739;53.324;6.862;2023-03-21T05:18:54;9.20;99.90
52867;DHT22;38739;53.324;6.862;2023-03-21T05:21:21;9.20;99.90
52867;DHT22;38739;53.324;6.862;2023-03-21T05:23:54;9.20;99.90
52867;DHT22;38739;53.324;6.862;2023-03-21T05:26:23;9.20;99.90
52867;DHT22;38739;53.324;6.862;2023-03-21T05:28:49;9.20;99.90
52867;DHT22;38739;53.324;6.862;2023-03-21T05:31:19;9.20;99.90
52867;DHT22;38739;53.324;6.862;2023-03-21T05:33:48;9.20;99.90
52867;DHT22;38739;53.324;6.862;2023-03-21T05:36:14;9.20;99.90
52867;DHT22;38739;53.324;6.862;2023-03-21T05:38:40;9.20;99.90
52867;DHT22;38739;53.324;6.862;2023-03-21T05:41:14;9.20;99.90
52867;DHT22;38739;53.324;6.862;2023-03-21T05:43:40;9.20;99.90
52867;DHT22;38739;53.324;6.862;2023-03-21T05:46:07;9.20;99.90
52867;DHT22;38739;53.324;6.862;2023-03-21T05:48:33;9.20;99.90
52867;DHT22;38739;53.324;6.862;2023-03-21T05:51:02;9.20;99.90
52867;DHT22;38739;53.324;6.862;2023-03-21T05:53:28;9.20;99.90
52867;DHT22;38739;53.324;6.862;2023-03-21T05:55:55;9.20;99.90
52867;DHT22;38739;53.324;6.862;2023-03-21T05:58:23;9.20;99.90
52867;DHT22;38739;53.324;6.862;2023-03-21T06:00:49;9.20;99.90
52867;DHT22;38739;53.324;6.862;2023-03-21T06:03:16;9.20;99.90
52867;DHT22;38739;53.324;6.862;2023-03-21T06:05:42;9.30;99.90
52867;DHT22;38739;53.324;6.862;2023-03-21T06:08:08;9.30;99.90
52867;DHT22;38739;53.324;6.862;2023-03-21T06:10:33;9.20;99.90
52867;DHT22;38739;53.324;6.862;2023-03-21T06:12:59;9.20;99.90
52867;DHT22;38739;53.324;6.862;2023-03-21T06:15:25;9.20;99.90
52867;DHT22;38739;53.324;6.862;2023-03-21T06:17:51;9.20;99.90
52867;DHT22;38739;53.324;6.862;2023-03-21T06:20:17;9.30;99.90
52867;DHT22;38739;53.324;6.862;2023-03-21T06:22:45;9.30;99.90
52867;DHT22;38739;53.324;6.862;2023-03-21T06:25:11;9.30;99.90
52867;DHT22;38739;53.324;6.862;2023-03-21T06:27:37;9.30;99.90
52867;DHT22;38739;53.324;6.862;2023-03-21T06:30:03;9.30;99.90
52867;DHT22;38739;53.324;6.862;2023-03-21T06:32:30;9.30;99.90
52867;DHT22;38739;53.324;6.862;2023-03-21T06:34:59;9.30;99.90
52867;DHT22;38739;53.324;6.862;2023-03-21T06:37:24;9.30;99.90
52867;DHT22;38739;53.324;6.862;2023-03-21T06:39:51;9.30;99.90
52867;DHT22;38739;53.324;6.862;2023-03-21T06:42:17;9.30;99.90
52867;DHT22;38739;53.324;6.862;2023-03-21T06:44:45;9.30;99.90
52867;DHT22;38739;53.324;6.862;2023-03-21T06:47:11;9.30;99.90
52867;DHT22;38739;53.324;6.862;2023-03-21T06:49:37;9.30;99.90
52867;DHT22;38739;53.324;6.862;2023-03-21T06:52:05;9.40;99.90
52867;DHT22;38739;53.324;6.862;2023-03-21T06:54:31;9.40;99.90
52867;DHT22;38739;53.324;6.862;2023-03-21T06:56:56;9.40;99.90
52867;DHT22;38739;53.324;6.862;2023-03-21T06:59:22;9.40;99.90
52867;DHT22;38739;53.324;6.862;2023-03-21T07:01:48;9.40;99.90
52867;DHT22;38739;53.324;6.862;2023-03-21T07:04:14;9.40;99.90
52867;DHT22;38739;53.324;6.862;2023-03-21T07:06:40;9.40;99.90
52867;DHT22;38739;53.324;6.862;2023-03-21T07:09:05;9.50;99.90
52867;DHT22;38739;53.324;6.862;2023-03-21T07:11:32;9.40;99.90
52867;DHT22;38739;53.324;6.862;2023-03-21T07:14:02;9.40;99.90
52867;DHT22;38739;53.324;6.862;2023-03-21T07:16:28;9.50;99.90
52867;DHT22;38739;53.324;6.862;2023-03-21T07:18:56;9.50;99.90
52867;DHT22;38739;53.324;6.862;2023-03-21T07:21:22;9.50;99.90
52867;DHT22;38739;53.324;6.862;2023-03-21T07:23:48;9.50;99.90
52867;DHT22;38739;53.324;6.862;2023-03-21T07:26:17;9.50;99.90
52867;DHT22;38739;53.324;6.862;2023-03-21T07:28:44;9.50;99.90
52867;DHT22;38739;53.324;6.862;2023-03-21T07:31:15;9.50;99.90
52867;DHT22;38739;53.324;6.862;2023-03-21T07:33:44;9.50;99.90
52867;DHT22;38739;53.324;6.862;2023-03-21T07:36:11;9.50;99.90
52867;DHT22;38739;53.324;6.862;2023-03-21T07:38:43;9.60;99.90
52867;DHT22;38739;53.324;6.862;2023-03-21T07:41:10;9.60;99.90
52867;DHT22;38739;53.324;6.862;2023-03-21T07:43:36;9.60;99.90
52867;DHT22;38739;53.324;6.862;2023-03-21T07:46:02;9.60;99.90
52867;DHT22;38739;53.324;6.862;2023-03-21T07:48:31;9.60;99.90
52867;DHT22;38739;53.324;6.862;2023-03-21T07:50:56;9.60;99.90
52867;DHT22;38739;53.324;6.862;2023-03-21T07:53:22;9.70;99.90
52867;DHT22;38739;53.324;6.862;2023-03-21T07:55:52;9.70;99.90
52867;DHT22;38739;53.324;6.862;2023-03-21T07:58:23;9.70;99.90
52867;DHT22;38739;53.324;6.862;2023-03-21T08:00:50;9.70;99.90
52867;DHT22;38739;53.324;6.862;2023-03-21T08:03:16;9.70;99.90
52867;DHT22;38739;53.324;6.862;2023-03-21T08:05:42;9.70;99.90
52867;DHT22;38739;53.324;6.862;2023-03-21T08:08:08;9.70;99.90
52867;DHT22;38739;53.324;6.862;2023-03-21T08:10:44;9.70;99.90
52867;DHT22;38739;53.324;6.862;2023-03-21T08:13:15;9.70;99.90
52867;DHT22;38739;53.324;6.862;2023-03-21T08:15:41;9.80;99.90
52867;DHT22;38739;53.324;6.862;2023-03-21T08:18:07;9.80;99.90
52867;DHT22;38739;53.324;6.862;2023-03-21T08:20:33;9.80;99.90
52867;DHT22;38739;53.324;6.862;2023-03-21T08:22:59;9.80;99.90
52867;DHT22;38739;53.324;6.862;2023-03-21T08:25:25;9.80;99.90
52867;DHT22;38739;53.324;6.862;2023-03-21T08:27:51;9.80;99.90
52867;DHT22;38739;53.324;6.862;2023-03-21T08:30:20;9.80;99.90
52867;DHT22;38739;53.324;6.862;2023-03-21T08:32:46;9.80;99.90
52867;DHT22;38739;53.324;6.862;2023-03-21T08:35:14;9.90;99.90
52867;DHT22;38739;53.324;6.862;2023-03-21T08:37:46;9.90;99.90
52867;DHT22;38739;53.324;6.862;2023-03-21T08:40:16;9.90;99.90
52867;DHT22;38739;53.324;6.862;2023-03-21T08:42:45;9.90;99.90
52867;DHT22;38739;53.324;6.862;2023-03-21T08:45:14;9.90;99.90
52867;DHT22;38739;53.324;6.862;2023-03-21T08:47:41;10.00;99.90
52867;DHT22;38739;53.324;6.862;2023-03-21T08:50:08;10.00;99.90
52867;DHT22;38739;53.324;6.862;2023-03-21T08:52:38;10.00;99.90
52867;DHT22;38739;53.324;6.862;2023-03-21T08:55:04;10.00;99.90
52867;DHT22;38739;53.324;6.862;2023-03-21T08:57:30;10.00;99.90
52867;DHT22;38739;53.324;6.862;2023-03-21T08:59:56;10.00;99.90
52867;DHT22;38739;53.324;6.862;2023-03-21T09:02:25;10.10;99.90
52867;DHT22;38739;53.324;6.862;2023-03-21T09:04:51;10.10;99.90
52867;DHT22;38739;53.324;6.862;2023-03-21T09:07:23;10.10;99.90
52867;DHT22;38739;53.324;6.862;2023-03-21T09:09:51;10.00;99.90
52867;DHT22;38739;53.324;6.862;2023-03-21T09:12:18;10.00;99.90
52867;DHT22;38739;53.324;6.862;2023-03-21T09:14:44;10.00;99.90
52867;DHT22;38739;53.324;6.862;2023-03-21T09:17:09;10.10;99.90
52867;DHT22;38739;53.324;6.862;2023-03-21T09:19:36;10.10;99.90
52867;DHT22;38739;53.324;6.862;2023-03-21T09:22:03;10.10;99.90
52867;DHT22;38739;53.324;6.862;2023-03-21T09:24:32;10.10;99.90
52867;DHT22;38739;53.324;6.862;2023-03-21T09:26:57;10.10;99.90
52867;DHT22;38739;53.324;6.862;2023-03-21T09:29:26;10.00;99.90
52867;DHT22;38739;53.324;6.862;2023-03-21T09:31:52;10.10;99.90
52867;DHT22;38739;53.324;6.862;2023-03-21T09:34:21;10.10;99.90
52867;DHT22;38739;53.324;6.862;2023-03-21T09:36:56;10.00;99.90
52867;DHT22;38739;53.324;6.862;2023-03-21T09:39:25;10.00;99.90
52867;DHT22;38739;53.324;6.862;2023-03-21T09:47:25;10.00;99.90
52867;DHT22;38739;53.324;6.862;2023-03-21T09:52:29;10.10;99.90
52867;DHT22;38739;53.324;6.862;2023-03-21T09:54:56;10.10;99.90
52867;DHT22;38739;53.324;6.862;2023-03-21T09:57:30;10.10;99.90
52867;DHT22;38739;53.324;6.862;2023-03-21T10:00:04;10.10;99.90
52867;DHT22;38739;53.324;6.862;2023-03-21T10:02:43;10.10;99.90
52867;DHT22;38739;53.324;6.862;2023-03-21T10:05:25;10.10;99.90
52867;DHT22;38739;53.324;6.862;2023-03-21T10:08:08;10.10;99.90
52867;DHT22;38739;53.324;6.862;2023-03-21T10:10:59;10.10;99.90
52867;DHT22;38739;53.324;6.862;2023-03-21T10:13:32;10.10;99.90
52867;DHT22;38739;53.324;6.862;2023-03-21T10:16:16;10.10;99.90
52867;DHT22;38739;53.324;6.862;2023-03-21T10:18:44;10.10;99.90
52867;DHT22;38739;53.324;6.862;2023-03-21T10:21:23;10.10;99.90
52867;DHT22;38739;53.324;6.862;2023-03-21T10:23:50;10.20;99.90
52867;DHT22;38739;53.324;6.862;2023-03-21T10:26:24;10.10;99.90
52867;DHT22;38739;53.324;6.862;2023-03-21T10:28:54;10.20;99.90
52867;DHT22;38739;53.324;6.862;2023-03-21T10:31:24;10.10;99.90
52867;DHT22;38739;53.324;6.862;2023-03-21T10:33:53;10.10;99.90
52867;DHT22;38739;53.324;6.862;2023-03-21T10:36:23;10.10;99.90
52867;DHT22;38739;53.324;6.862;2023-03-21T10:38:53;10.10;99.90
52867;DHT22;38739;53.324;6.862;2023-03-21T10:41:20;10.10;99.90
52867;DHT22;38739;53.324;6.862;2023-03-21T10:44:17;10.10;99.90
52867;DHT22;38739;53.324;6.862;2023-03-21T10:47:07;10.10;99.90
52867;DHT22;38739;53.324;6.862;2023-03-21T10:49:35;10.10;99.90
52867;DHT22;38739;53.324;6.862;2023-03-21T10:52:05;10.10;99.90
52867;DHT22;38739;53.324;6.862;2023-03-21T10:54:33;10.10;99.90
52867;DHT22;38739;53.324;6.862;2023-03-21T10:57:12;10.10;99.90
52867;DHT22;38739;53.324;6.862;2023-03-21T10:59:44;10.00;99.90
52867;DHT22;38739;53.324;6.862;2023-03-21T11:02:34;10.00;99.90
52867;DHT22;38739;53.324;6.862;2023-03-21T11:05:19;10.10;99.90
52867;DHT22;38739;53.324;6.862;2023-03-21T11:07:55;10.10;99.90
52867;DHT22;38739;53.324;6.862;2023-03-21T11:10:34;10.10;99.90
52867;DHT22;38739;53.324;6.862;2023-03-21T11:13:06;10.10;99.90
52867;DHT22;38739;53.324;6.862;2023-03-21T11:15:52;10.10;99.90
52867;DHT22;38739;53.324;6.862;2023-03-21T11:18:23;10.20;99.90
52867;DHT22;38739;53.324;6.862;2023-03-21T11:20:54;10.20;99.90
52867;DHT22;38739;53.324;6.862;2023-03-21T11:23:25;10.20;99.90
52867;DHT22;38739;53.324;6.862;2023-03-21T11:25:53;10.30;99.90
52867;DHT22;38739;53.324;6.862;2023-03-21T11:28:23;10.30;99.90
52867;DHT22;38739;53.324;6.862;2023-03-21T11:31:00;10.30;99.90
52867;DHT22;38739;53.324;6.862;2023-03-21T11:33:38;10.40;99.90
52867;DHT22;38739;53.324;6.862;2023-03-21T11:36:26;10.50;99.90
52867;DHT22;38739;53.324;6.862;2023-03-21T11:38:58;10.50;99.90
52867;DHT22;38739;53.324;6.862;2023-03-21T11:41:30;10.60;99.90
52867;DHT22;38739;53.324;6.862;2023-03-21T11:43:57;10.60;99.90
52867;DHT22;38739;53.324;6.862;2023-03-21T11:46:25;10.60;99.90
52867;DHT22;38739;53.324;6.862;2023-03-21T11:48:51;10.60;99.90
52867;DHT22;38739;53.324;6.862;2023-03-21T11:54:06;10.70;99.90
52867;DHT22;38739;53.324;6.862;2023-03-21T11:56:41;10.80;99.90
52867;DHT22;38739;53.324;6.862;2023-03-21T12:13:03;11.50;99.90
52867;DHT22;38739;53.324;6.862;2023-03-21T12:24:56;11.70;99.90
52867;DHT22;38739;53.324;6.862;2023-03-21T12:36:25;11.80;99.90
52867;DHT22;38739;53.324;6.862;2023-03-21T12:41:44;11.70;99.90
52867;DHT22;38739;53.324;6.862;2023-03-21T12:44:19;11.60;99.90
52867;DHT22;38739;53.324;6.862;2023-03-21T12:47:01;11.60;99.90
52867;DHT22;38739;53.324;6.862;2023-03-21T12:49:38;11.60;99.90
52867;DHT22;38739;53.324;6.862;2023-03-21T12:52:23;11.60;99.90
52867;DHT22;38739;53.324;6.862;2023-03-21T12:54:55;11.60;99.90
52867;DHT22;38739;53.324;6.862;2023-03-21T12:57:44;11.50;99.90
52867;DHT22;38739;53.324;6.862;2023-03-21T13:05:30;11.40;99.90
52867;DHT22;38739;53.324;6.862;2023-03-21T13:08:06;11.30;99.90
52867;DHT22;38739;53.324;6.862;2023-03-21T13:10:34;11.30;99.90
52867;DHT22;38739;53.324;6.862;2023-03-21T13:22:05;11.30;99.90
52867;DHT22;38739;53.324;6.862;2023-03-21T13:24:32;11.30;99.90
52867;DHT22;38739;53.324;6.862;2023-03-21T13:27:05;11.40;99.90
52867;DHT22;38739;53.324;6.862;2023-03-21T13:29:44;11.40;99.90
52867;DHT22;38739;53.324;6.862;2023-03-21T13:32:33;11.40;99.90
52867;DHT22;38739;53.324;6.862;2023-03-21T13:35:22;11.40;99.90
52867;DHT22;38739;53.324;6.862;2023-03-21T13:38:09;11.40;99.90
52867;DHT22;38739;53.324;6.862;2023-03-21T13:40:42;11.40;99.90
52867;DHT22;38739;53.324;6.862;2023-03-21T13:43:32;11.50;99.90
52867;DHT22;38739;53.324;6.862;2023-03-21T13:46:13;11.60;99.90
52867;DHT22;38739;53.324;6.862;2023-03-21T13:48:58;11.70;99.90
52867;DHT22;38739;53.324;6.862;2023-03-21T13:51:45;11.90;99.90
52867;DHT22;38739;53.324;6.862;2023-03-21T14:02:29;12.00;99.90
52867;DHT22;38739;53.324;6.862;2023-03-21T14:05:15;11.90;99.90
52867;DHT22;38739;53.324;6.862;2023-03-21T14:07:45;11.90;99.90
52867;DHT22;38739;53.324;6.862;2023-03-21T14:12:49;11.80;99.90
52867;DHT22;38739;53.324;6.862;2023-03-21T14:15:29;11.80;99.90
52867;DHT22;38739;53.324;6.862;2023-03-21T14:17:59;11.80;99.90
52867;DHT22;38739;53.324;6.862;2023-03-21T14:20:37;11.80;99.90
52867;DHT22;38739;53.324;6.862;2023-03-21T14:23:15;11.80;99.90
52867;DHT22;38739;53.324;6.862;2023-03-21T14:25:42;11.80;99.90
52867;DHT22;38739;53.324;6.862;2023-03-21T14:28:25;11.80;99.90
52867;DHT22;38739;53.324;6.862;2023-03-21T14:30:59;11.90;99.90
52867;DHT22;38739;53.324;6.862;2023-03-21T14:33:38;11.90;99.90
52867;DHT22;38739;53.324;6.862;2023-03-21T14:36:11;11.90;99.90
52867;DHT22;38739;53.324;6.862;2023-03-21T14:38:39;12.00;99.90
52867;DHT22;38739;53.324;6.862;2023-03-21T14:41:31;12.20;99.90
52867;DHT22;38739;53.324;6.862;2023-03-21T14:47:21;12.50;99.90
52867;DHT22;38739;53.324;6.862;2023-03-21T14:49:48;12.80;99.90
52867;DHT22;38739;53.324;6.862;2023-03-21T14:52:26;13.10;99.90
52867;DHT22;38739;53.324;6.862;2023-03-21T14:55:00;13.30;99.90
52867;DHT22;38739;53.324;6.862;2023-03-21T14:57:30;13.40;99.90
52867;DHT22;38739;53.324;6.862;2023-03-21T15:00:06;13.60;99.90
52867;DHT22;38739;53.324;6.862;2023-03-21T15:02:40;13.60;99.90
52867;DHT22;38739;53.324;6.862;2023-03-21T15:05:34;13.50;99.90
52867;DHT22;38739;53.324;6.862;2023-03-21T15:08:11;13.40;99.90
52867;DHT22;38739;53.324;6.862;2023-03-21T15:10:38;13.20;99.90
52867;DHT22;38739;53.324;6.862;2023-03-21T15:13:17;13.10;99.90
52867;DHT22;38739;53.324;6.862;2023-03-21T15:15:46;12.90;99.90
52867;DHT22;38739;53.324;6.862;2023-03-21T15:18:16;12.80;99.90
52867;DHT22;38739;53.324;6.862;2023-03-21T15:20:47;12.80;99.90
52867;DHT22;38739;53.324;6.862;2023-03-21T15:23:28;12.90;99.90
52867;DHT22;38739;53.324;6.862;2023-03-21T15:25:55;13.00;99.90
52867;DHT22;38739;53.324;6.862;2023-03-21T15:28:23;13.00;99.90
52867;DHT22;38739;53.324;6.862;2023-03-21T15:30:51;12.90;99.90
52867;DHT22;38739;53.324;6.862;2023-03-21T15:33:19;12.80;99.90
52867;DHT22;38739;53.324;6.862;2023-03-21T15:35:56;12.80;99.90
52867;DHT22;38739;53.324;6.862;2023-03-21T15:38:32;12.70;99.90
52867;DHT22;38739;53.324;6.862;2023-03-21T15:44:10;12.60;99.90
52867;DHT22;38739;53.324;6.862;2023-03-21T15:46:51;12.50;99.90
52867;DHT22;38739;53.324;6.862;2023-03-21T15:51:56;12.40;99.90
52867;DHT22;38739;53.324;6.862;2023-03-21T15:54:32;12.40;99.90
52867;DHT22;38739;53.324;6.862;2023-03-21T15:57:02;12.20;99.90
52867;DHT22;38739;53.324;6.862;2023-03-21T15:59:35;12.20;99.90
52867;DHT22;38739;53.324;6.862;2023-03-21T16:02:03;12.20;99.90
52867;DHT22;38739;53.324;6.862;2023-03-21T16:04:30;12.10;99.90
52867;DHT22;38739;53.324;6.862;2023-03-21T16:07:10;12.10;99.90
52867;DHT22;38739;53.324;6.862;2023-03-21T16:09:46;12.20;99.90
52867;DHT22;38739;53.324;6.862;2023-03-21T16:12:13;12.10;99.90
52867;DHT22;38739;53.324;6.862;2023-03-21T16:14:40;12.10;99.90
52867;DHT22;38739;53.324;6.862;2023-03-21T16:17:31;12.10;99.90
52867;DHT22;38739;53.324;6.862;2023-03-21T16:19:58;12.10;99.90
52867;DHT22;38739;53.324;6.862;2023-03-21T16:22:25;12.10;99.90
52867;DHT22;38739;53.324;6.862;2023-03-21T16:24:51;12.10;99.90
52867;DHT22;38739;53.324;6.862;2023-03-21T16:27:18;12.10;99.90
52867;DHT22;38739;53.324;6.862;2023-03-21T16:29:44;12.00;99.90
52867;DHT22;38739;53.324;6.862;2023-03-21T16:32:19;12.00;99.90
52867;DHT22;38739;53.324;6.862;2023-03-21T16:34:45;12.00;99.90
52867;DHT22;38739;53.324;6.862;2023-03-21T16:37:11;12.00;99.90
52867;DHT22;38739;53.324;6.862;2023-03-21T16:39:40;12.00;99.90
52867;DHT22;38739;53.324;6.862;2023-03-21T16:42:06;11.90;99.90
52867;DHT22;38739;53.324;6.862;2023-03-21T16:44:32;11.90;99.90
52867;DHT22;38739;53.324;6.862;2023-03-21T16:46:58;11.90;99.90
52867;DHT22;38739;53.324;6.862;2023-03-21T16:49:27;11.90;99.90
52867;DHT22;38739;53.324;6.862;2023-03-21T16:51:54;11.90;99.90
52867;DHT22;38739;53.324;6.862;2023-03-21T16:54:20;11.80;99.90
52867;DHT22;38739;53.324;6.862;2023-03-21T16:56:52;11.80;99.90
52867;DHT22;38739;53.324;6.862;2023-03-21T16:59:18;11.80;99.90
52867;DHT22;38739;53.324;6.862;2023-03-21T17:01:44;11.80;99.90
52867;DHT22;38739;53.324;6.862;2023-03-21T17:04:12;11.70;99.90
52867;DHT22;38739;53.324;6.862;2023-03-21T17:06:57;11.70;99.90
52867;DHT22;38739;53.324;6.862;2023-03-21T17:09:23;11.60;99.90
52867;DHT22;38739;53.324;6.862;2023-03-21T17:11:52;11.50;99.90
52867;DHT22;38739;53.324;6.862;2023-03-21T17:14:18;11.40;99.90
52867;DHT22;38739;53.324;6.862;2023-03-21T17:16:46;11.30;99.90
52867;DHT22;38739;53.324;6.862;2023-03-21T17:19:14;11.30;99.90
52867;DHT22;38739;53.324;6.862;2023-03-21T17:21:40;11.20;99.90
52867;DHT22;38739;53.324;6.862;2023-03-21T17:24:06;11.10;99.90
52867;DHT22;38739;53.324;6.862;2023-03-21T17:26:32;11.00;99.90
52867;DHT22;38739;53.324;6.862;2023-03-21T17:28:58;11.00;99.90
52867;DHT22;38739;53.324;6.862;2023-03-21T17:31:26;10.90;99.90
52867;DHT22;38739;53.324;6.862;2023-03-21T17:33:52;10.90;99.90
52867;DHT22;38739;53.324;6.862;2023-03-21T17:36:21;10.80;99.90
52867;DHT22;38739;53.324;6.862;2023-03-21T17:38:51;10.80;99.90
52867;DHT22;38739;53.324;6.862;2023-03-21T17:41:18;10.70;99.90
52867;DHT22;38739;53.324;6.862;2023-03-21T17:43:44;10.80;99.90
52867;DHT22;38739;53.324;6.862;2023-03-21T17:46:13;10.70;99.90
52867;DHT22;38739;53.324;6.862;2023-03-21T17:48:39;10.70;99.90
52867;DHT22;38739;53.324;6.862;2023-03-21T17:51:05;10.70;99.90
52867;DHT22;38739;53.324;6.862;2023-03-21T17:53:31;10.70;99.90
52867;DHT22;38739;53.324;6.862;2023-03-21T17:55:57;10.70;99.90
52867;DHT22;38739;53.324;6.862;2023-03-21T17:58:26;10.70;99.90
52867;DHT22;38739;53.324;6.862;2023-03-21T18:00:55;10.60;99.90
52867;DHT22;38739;53.324;6.862;2023-03-21T18:03:21;10.60;99.90